createdAt,value
2017-10-24T00:01:24.139Z,35.70
2017-10-24T00:03:51.570Z,29.73
2017-10-24T00:06:19.006Z,29.20
2017-10-24T00:08:47.222Z,20.73
2017-10-24T00:11:14.654Z,18.20
2017-10-24T00:13:42.085Z,17.60
2017-10-24T00:16:10.301Z,17.17
2017-10-24T00:18:37.732Z,18.90
2017-10-24T00:21:05.168Z,18.70
2017-10-24T00:23:33.026Z,19.27
2017-10-24T00:26:00.856Z,18.33
2017-10-24T00:28:28.285Z,18.30
2017-10-24T00:30:55.985Z,17.40
2017-10-24T00:33:23.417Z,22.77
2017-10-24T00:35:50.845Z,17.77
2017-10-24T00:38:18.316Z,17.13
2017-10-24T00:40:45.751Z,17.73
2017-10-24T00:43:13.181Z,17.47
2017-10-24T00:45:41.036Z,18.47
2017-10-24T00:48:08.471Z,18.70
2017-10-24T00:50:35.898Z,17.70
2017-10-24T00:53:03.335Z,18.70
2017-10-24T00:55:30.769Z,17.47
2017-10-24T00:57:58.611Z,20.77
2017-10-24T01:00:26.044Z,19.70
2017-10-24T01:02:53.477Z,19.40
2017-10-24T01:05:21.154Z,23.80
2017-10-24T01:07:48.588Z,20.33
2017-10-24T01:10:16.010Z,19.23
2017-10-24T01:12:43.852Z,19.20
2017-10-24T01:15:11.277Z,19.00
2017-10-24T01:17:38.712Z,20.50
2017-10-24T01:20:06.426Z,20.50
2017-10-24T01:22:33.861Z,19.73
2017-10-24T01:25:01.286Z,18.33
2017-10-24T01:27:28.730Z,18.07
2017-10-24T01:29:56.160Z,18.47
2017-10-24T01:32:24.289Z,20.00
2017-10-24T01:34:51.722Z,18.30
2017-10-24T01:37:19.149Z,18.17
2017-10-24T01:39:46.753Z,18.77
2017-10-24T01:42:14.192Z,18.30
2017-10-24T01:44:41.617Z,18.60
2017-10-24T01:47:09.425Z,18.93
2017-10-24T01:49:36.850Z,19.90
2017-10-24T01:52:04.281Z,19.30
2017-10-24T01:54:32.118Z,19.00
2017-10-24T01:56:59.547Z,20.80
2017-10-24T01:59:26.983Z,20.03
2017-10-24T02:01:54.434Z,21.53
2017-10-24T02:04:21.862Z,20.13
2017-10-24T02:06:49.686Z,20.20
2017-10-24T02:09:17.145Z,22.57
2017-10-24T02:11:44.585Z,23.10
2017-10-24T02:14:12.027Z,21.40
2017-10-24T02:16:39.596Z,23.00
2017-10-24T02:19:07.026Z,22.10
2017-10-24T02:21:34.448Z,22.50
2017-10-24T02:24:02.306Z,23.77
2017-10-24T02:26:29.733Z,23.27
2017-10-24T02:28:57.170Z,23.60
2017-10-24T02:31:24.836Z,22.73
2017-10-24T02:33:52.264Z,22.57
2017-10-24T02:36:19.698Z,25.17
2017-10-24T02:38:47.714Z,21.90
2017-10-24T02:41:15.145Z,22.70
2017-10-24T02:43:42.561Z,22.23
2017-10-24T02:46:10.028Z,23.70
2017-10-24T02:48:37.854Z,22.03
2017-10-24T02:51:05.281Z,22.87
2017-10-24T02:53:33.061Z,24.73
2017-10-24T02:56:00.510Z,24.03
2017-10-24T02:58:27.937Z,25.40
2017-10-24T03:00:55.401Z,24.03
2017-10-24T03:03:22.825Z,23.10
2017-10-24T03:05:50.657Z,24.83
2017-10-24T03:08:18.113Z,26.83
2017-10-24T03:10:45.561Z,26.40
2017-10-24T03:13:12.970Z,26.63
2017-10-24T03:15:40.552Z,24.90
2017-10-24T03:18:07.976Z,24.47
2017-10-24T03:20:35.802Z,24.73
2017-10-24T03:23:03.440Z,26.43
2017-10-24T03:25:30.871Z,23.97
2017-10-24T03:27:58.289Z,25.63
2017-10-24T03:30:25.757Z,25.03
2017-10-24T03:32:53.576Z,25.47
2017-10-24T03:35:20.997Z,24.20
2017-10-24T03:37:48.681Z,23.73
2017-10-24T03:40:16.100Z,23.20
2017-10-24T03:42:43.527Z,22.90
2017-10-24T03:45:10.953Z,23.13
2017-10-24T03:47:38.397Z,24.20
2017-10-24T03:50:05.832Z,23.33
2017-10-24T03:52:33.257Z,23.03
2017-10-24T03:55:01.117Z,25.37
2017-10-24T03:57:28.544Z,23.93
2017-10-24T03:59:55.969Z,24.27
2017-10-24T04:02:23.636Z,26.80
2017-10-24T04:04:51.481Z,24.37
2017-10-24T04:07:19.206Z,28.20
2017-10-24T04:09:46.663Z,26.10
2017-10-24T04:12:14.101Z,24.03
2017-10-24T04:14:41.534Z,25.90
2017-10-24T04:17:08.974Z,24.73
2017-10-24T04:19:36.401Z,25.30
2017-10-24T04:22:04.519Z,24.40
2017-10-24T04:24:32.173Z,25.13
2017-10-24T04:26:59.608Z,26.17
2017-10-24T04:29:27.031Z,26.07
2017-10-24T04:31:54.901Z,26.80
2017-10-24T04:34:22.729Z,26.97
2017-10-24T04:36:50.157Z,26.30
2017-10-24T04:39:17.624Z,26.50
2017-10-24T04:41:45.065Z,28.27
2017-10-24T04:44:12.506Z,28.53
2017-10-24T04:46:39.961Z,27.60
2017-10-24T04:49:07.389Z,26.17
2017-10-24T04:51:35.212Z,29.90
2017-10-24T04:54:02.661Z,27.37
2017-10-24T04:56:30.099Z,27.23
2017-10-24T04:58:57.525Z,27.20
2017-10-24T05:01:25.505Z,25.83
2017-10-24T05:03:52.934Z,27.60
2017-10-24T05:06:20.761Z,27.30
2017-10-24T05:08:48.233Z,25.30
2017-10-24T05:11:15.664Z,25.60
2017-10-24T05:13:43.085Z,25.50
2017-10-24T05:16:10.549Z,27.63
2017-10-24T05:18:37.973Z,28.37
2017-10-24T05:21:05.849Z,28.47
2017-10-24T05:23:33.254Z,28.20
2017-10-24T05:26:00.689Z,27.53
2017-10-24T05:28:28.247Z,26.07
2017-10-24T05:30:55.670Z,28.40
2017-10-24T05:33:23.489Z,30.10
2017-10-24T05:35:51.233Z,31.10
2017-10-24T05:38:18.662Z,27.63
2017-10-24T05:40:46.080Z,28.67
2017-10-24T05:43:13.537Z,29.50
2017-10-24T05:45:40.964Z,26.10
2017-10-24T05:48:09.229Z,25.40
2017-10-24T05:50:36.990Z,23.90
2017-10-24T05:53:04.416Z,24.90
2017-10-24T05:55:31.857Z,23.60
2017-10-24T05:57:59.312Z,25.10
2017-10-24T06:00:27.142Z,24.20
2017-10-24T06:02:54.573Z,26.23
2017-10-24T06:05:22.034Z,25.13
2017-10-24T06:07:49.468Z,28.00
2017-10-24T06:10:16.898Z,27.37
2017-10-24T06:12:44.930Z,26.70
2017-10-24T06:15:12.358Z,25.93
2017-10-24T06:17:39.784Z,25.60
2017-10-24T06:20:07.226Z,27.83
2017-10-24T06:22:35.054Z,26.07
2017-10-24T06:25:02.488Z,26.10
2017-10-24T06:27:29.971Z,25.07
2017-10-24T06:29:57.402Z,25.97
2017-10-24T06:32:24.843Z,25.27
2017-10-24T06:34:52.305Z,27.47
2017-10-24T06:37:19.739Z,27.30
2017-10-24T06:39:47.170Z,26.77
2017-10-24T06:42:15.113Z,26.57
2017-10-24T06:44:42.545Z,27.03
2017-10-24T06:47:09.981Z,29.17
2017-10-24T06:49:37.516Z,28.03
2017-10-24T06:52:04.968Z,26.70
2017-10-24T06:54:32.376Z,29.20
2017-10-24T06:56:59.859Z,26.70
2017-10-24T06:59:27.289Z,27.80
2017-10-24T07:01:54.721Z,27.90
2017-10-24T07:04:22.184Z,30.60
2017-10-24T07:06:49.624Z,28.70
2017-10-24T07:09:17.048Z,24.63
2017-10-24T07:11:44.899Z,24.90
2017-10-24T07:14:12.333Z,25.83
2017-10-24T07:16:39.765Z,25.63
2017-10-24T07:19:07.200Z,23.23
2017-10-24T07:21:34.625Z,24.80
2017-10-24T07:24:02.840Z,23.83
2017-10-24T07:26:30.272Z,23.33
2017-10-24T07:28:57.703Z,21.80
2017-10-24T07:31:25.577Z,23.50
2017-10-24T07:33:53.398Z,22.07
2017-10-24T07:36:20.825Z,24.40
2017-10-24T07:38:48.441Z,22.20
2017-10-24T07:41:16.264Z,21.53
2017-10-24T07:43:43.703Z,22.13
2017-10-24T07:46:11.165Z,23.17
2017-10-24T07:48:38.580Z,21.33
2017-10-24T07:51:06.803Z,22.40
2017-10-24T07:53:34.225Z,21.37
2017-10-24T07:56:01.653Z,21.40
2017-10-24T07:58:29.080Z,20.77
2017-10-24T08:00:56.513Z,22.77
2017-10-24T08:03:23.958Z,22.00
2017-10-24T08:05:51.429Z,24.47
2017-10-24T08:08:18.864Z,20.40
2017-10-24T08:10:46.297Z,24.20
2017-10-24T08:13:13.724Z,22.20
2017-10-24T08:15:41.167Z,21.03
2017-10-24T08:18:08.898Z,20.40
2017-10-24T08:20:36.326Z,21.30
2017-10-24T08:23:03.756Z,20.07
2017-10-24T08:25:32.089Z,19.13
2017-10-24T08:27:59.517Z,18.23
2017-10-24T08:30:26.949Z,17.40
2017-10-24T08:32:54.782Z,16.57
2017-10-24T08:35:22.210Z,16.20
2017-10-24T08:37:49.660Z,16.97
2017-10-24T08:40:17.090Z,16.87
2017-10-24T08:42:44.517Z,14.90
2017-10-24T08:45:12.153Z,15.90
2017-10-24T08:47:39.590Z,15.80
2017-10-24T08:50:07.020Z,17.53
2017-10-24T08:52:34.704Z,16.70
2017-10-24T08:55:02.132Z,17.23
2017-10-24T08:57:29.568Z,17.63
2017-10-24T08:59:57.420Z,18.93
2017-10-24T09:02:24.860Z,18.07
2017-10-24T09:04:52.697Z,19.43
2017-10-24T09:07:22.998Z,19.73
2017-10-24T09:09:50.425Z,20.50
2017-10-24T09:12:18.252Z,18.23
2017-10-24T09:14:45.997Z,19.50
2017-10-24T09:17:37.112Z,19.90
2017-10-24T09:20:08.237Z,20.50
2017-10-24T09:22:35.666Z,19.90
2017-10-24T09:25:03.495Z,21.17
2017-10-24T09:27:30.937Z,19.20
2017-10-24T09:29:58.370Z,22.23
2017-10-24T09:32:29.439Z,21.47
2017-10-24T09:34:57.192Z,20.23
2017-10-24T09:37:24.614Z,21.17
2017-10-24T09:39:52.045Z,19.17
2017-10-24T09:42:19.873Z,22.40
2017-10-24T09:44:47.330Z,23.90
2017-10-24T09:47:14.760Z,24.37
2017-10-24T09:49:54.296Z,22.67
2017-10-24T09:52:21.728Z,23.30
2017-10-24T09:54:49.162Z,25.00
2017-10-24T09:57:16.861Z,26.50
2017-10-24T09:59:44.297Z,25.60
2017-10-24T10:02:11.734Z,25.77
2017-10-24T10:04:39.570Z,26.83
2017-10-24T10:07:10.551Z,26.30
2017-10-24T10:09:37.982Z,25.43
2017-10-24T10:12:09.258Z,29.07
2017-10-24T10:14:37.075Z,24.77
2017-10-24T10:17:04.514Z,26.50
2017-10-24T10:19:32.112Z,27.77
2017-10-24T10:21:59.532Z,26.77
2017-10-24T10:24:34.510Z,29.90
2017-10-24T10:27:02.342Z,26.70
2017-10-24T10:29:29.760Z,26.73
2017-10-24T10:31:57.216Z,26.73
2017-10-24T10:34:24.648Z,25.67
2017-10-24T10:36:52.092Z,25.80
2017-10-24T10:39:19.525Z,26.00
2017-10-24T10:41:47.354Z,26.17
2017-10-24T10:44:14.789Z,29.17
2017-10-24T10:46:42.241Z,27.50
2017-10-24T10:49:09.658Z,27.07
2017-10-24T10:51:37.480Z,29.10
2017-10-24T10:54:05.229Z,26.70
2017-10-24T10:56:32.665Z,28.10
2017-10-24T10:59:00.089Z,28.10
2017-10-24T11:01:27.915Z,29.60
2017-10-24T11:03:55.336Z,28.47
2017-10-24T11:06:22.768Z,30.37
2017-10-24T11:08:50.193Z,27.20
2017-10-24T11:11:17.625Z,27.40
2017-10-24T11:13:45.381Z,30.07
2017-10-24T11:16:12.813Z,29.20
2017-10-24T11:18:40.237Z,30.10
2017-10-24T11:21:07.701Z,28.50
2017-10-24T11:23:35.521Z,31.90
2017-10-24T11:26:02.941Z,30.10
2017-10-24T11:28:30.374Z,28.97
2017-10-24T11:30:58.194Z,27.83
2017-10-24T11:33:25.618Z,29.27
2017-10-24T11:35:53.350Z,28.83
2017-10-24T11:38:21.170Z,31.60
2017-10-24T11:40:48.610Z,30.60
2017-10-24T11:43:16.044Z,31.70
2017-10-24T11:45:43.460Z,29.77
2017-10-24T11:48:12.009Z,30.10
2017-10-24T11:50:39.524Z,30.03
2017-10-24T11:53:06.993Z,32.60
2017-10-24T11:55:34.690Z,29.43
2017-10-24T11:58:02.120Z,28.77
2017-10-24T12:00:29.541Z,32.27
2017-10-24T12:02:57.659Z,31.10
2017-10-24T12:05:25.091Z,32.87
2017-10-24T12:07:52.517Z,31.97
2017-10-24T12:10:19.965Z,31.10
2017-10-24T12:12:47.388Z,29.30
2017-10-24T12:15:14.824Z,30.13
2017-10-24T12:17:42.269Z,30.23
2017-10-24T12:20:09.691Z,29.17
2017-10-24T12:22:37.509Z,27.47
2017-10-24T12:25:05.118Z,32.50
2017-10-24T12:27:32.944Z,28.07
2017-10-24T12:30:00.364Z,28.53
2017-10-24T12:32:27.799Z,30.23
2017-10-24T12:34:55.625Z,26.43
2017-10-24T12:37:23.251Z,28.80
2017-10-24T12:39:50.677Z,25.67
2017-10-24T12:42:18.497Z,26.00
2017-10-24T12:44:51.573Z,24.97
2017-10-24T12:47:18.992Z,29.00
2017-10-24T12:49:46.429Z,27.50
2017-10-24T12:52:14.545Z,26.80
2017-10-24T12:54:41.972Z,24.67
2017-10-24T12:57:11.898Z,26.23
2017-10-24T12:59:40.226Z,25.07
2017-10-24T13:02:07.845Z,26.10
2017-10-24T13:04:35.272Z,24.53
2017-10-24T13:07:02.704Z,26.93
2017-10-24T13:09:30.705Z,23.23
2017-10-24T13:11:58.132Z,25.23
2017-10-24T13:14:25.961Z,24.80
2017-10-24T13:16:53.418Z,23.60
2017-10-24T13:19:20.851Z,22.40
2017-10-24T13:21:48.268Z,22.67
2017-10-24T13:24:15.727Z,23.13
2017-10-24T13:26:43.155Z,20.80
2017-10-24T13:29:10.590Z,25.97
2017-10-24T13:31:38.026Z,23.77
2017-10-24T13:34:05.485Z,23.00
2017-10-24T13:36:32.914Z,23.83
2017-10-24T13:39:00.340Z,21.93
2017-10-24T13:41:28.451Z,24.03
2017-10-24T13:43:55.946Z,23.53
2017-10-24T13:46:23.373Z,22.90
2017-10-24T13:48:50.821Z,22.37
2017-10-24T13:51:18.253Z,24.00
2017-10-24T13:53:45.684Z,25.40
2017-10-24T13:56:13.517Z,24.33
2017-10-24T13:58:40.954Z,25.20
2017-10-24T14:01:08.405Z,26.67
2017-10-24T14:03:35.833Z,22.90
2017-10-24T14:06:08.838Z,24.30
2017-10-24T14:08:42.013Z,27.47
2017-10-24T14:11:09.447Z,25.73
2017-10-24T14:13:37.274Z,25.00
2017-10-24T14:16:04.918Z,24.67
2017-10-24T14:18:32.350Z,26.47
2017-10-24T14:20:59.782Z,28.07
2017-10-24T14:23:27.896Z,26.73
2017-10-24T14:25:55.327Z,26.80
2017-10-24T14:28:22.753Z,27.90
2017-10-24T14:30:50.612Z,22.97
2017-10-24T14:33:18.041Z,24.23
2017-10-24T14:35:45.483Z,24.87
2017-10-24T14:38:12.912Z,27.30
2017-10-24T14:40:40.598Z,27.27
2017-10-24T14:43:08.036Z,24.90
2017-10-24T14:45:35.472Z,25.87
2017-10-24T14:48:03.180Z,29.10
2017-10-24T14:50:30.611Z,26.43
2017-10-24T14:52:58.038Z,23.97
2017-10-24T14:55:25.485Z,25.77
2017-10-24T14:57:53.310Z,26.50
2017-10-24T15:00:20.737Z,28.07
2017-10-24T15:02:48.165Z,26.17
2017-10-24T15:05:15.601Z,24.20
2017-10-24T15:07:43.213Z,24.30
2017-10-24T15:10:10.641Z,27.27
2017-10-24T15:12:38.070Z,24.80
2017-10-24T15:15:06.805Z,27.70
2017-10-24T15:17:34.232Z,28.10
2017-10-24T15:20:01.664Z,25.37
2017-10-24T15:22:29.517Z,25.40
2017-10-24T15:24:56.945Z,26.97
2017-10-24T15:27:24.388Z,27.03
2017-10-24T15:29:51.817Z,28.57
2017-10-24T15:32:19.252Z,25.70
2017-10-24T15:34:47.098Z,27.47
2017-10-24T15:37:14.519Z,27.67
2017-10-24T15:39:41.945Z,25.90
2017-10-24T15:42:09.414Z,27.37
2017-10-24T15:44:36.848Z,27.93
2017-10-24T15:47:04.299Z,26.10
2017-10-24T15:49:31.997Z,28.70
2017-10-24T15:51:59.425Z,28.30
2017-10-24T15:54:26.856Z,26.93
2017-10-24T15:56:55.394Z,27.10
2017-10-24T15:59:22.830Z,30.60
2017-10-24T16:01:50.261Z,27.23
2017-10-24T16:04:17.722Z,28.10
2017-10-24T16:06:45.157Z,26.10
2017-10-24T16:09:12.977Z,27.10
2017-10-24T16:11:40.433Z,27.80
2017-10-24T16:14:07.867Z,30.20
2017-10-24T16:16:35.296Z,28.17
2017-10-24T16:19:03.102Z,28.30
2017-10-24T16:21:30.537Z,25.90
2017-10-24T16:23:57.968Z,27.77
2017-10-24T16:26:25.554Z,27.37
2017-10-24T16:28:52.977Z,30.87
2017-10-24T16:31:20.800Z,27.30
2017-10-24T16:33:48.269Z,26.80
2017-10-24T16:36:15.698Z,29.80
2017-10-24T16:38:43.141Z,27.80
2017-10-24T16:41:10.612Z,29.40
2017-10-24T16:43:38.050Z,28.40
2017-10-24T16:46:05.487Z,29.07
2017-10-24T16:48:32.931Z,27.73
2017-10-24T16:51:00.749Z,28.67
2017-10-24T16:53:28.187Z,28.50
2017-10-24T16:55:55.851Z,26.03
2017-10-24T16:58:23.285Z,28.60
2017-10-24T17:00:50.720Z,29.40
2017-10-24T17:03:18.418Z,28.57
2017-10-24T17:05:45.842Z,28.00
2017-10-24T17:08:13.271Z,27.80
2017-10-24T17:10:41.101Z,28.57
2017-10-24T17:13:08.540Z,26.97
2017-10-24T17:15:35.970Z,28.20
2017-10-24T17:18:03.419Z,28.10
2017-10-24T17:20:30.849Z,28.97
2017-10-24T17:22:58.677Z,29.27
2017-10-24T17:25:26.150Z,28.90
2017-10-24T17:27:53.585Z,27.20
2017-10-24T17:30:21.021Z,34.00
2017-10-24T17:32:48.477Z,30.80
2017-10-24T17:35:15.910Z,30.00
2017-10-24T17:37:43.341Z,28.77
2017-10-24T17:40:10.800Z,31.03
2017-10-24T17:42:38.233Z,31.17
2017-10-24T17:45:05.700Z,31.20
2017-10-24T17:47:33.130Z,33.40
2017-10-24T17:50:00.550Z,34.37
2017-10-24T17:52:28.038Z,33.63
2017-10-24T17:54:55.912Z,32.17
2017-10-24T17:57:23.347Z,30.93
2017-10-24T17:59:50.774Z,30.73
2017-10-24T18:02:18.253Z,32.40
2017-10-24T18:04:45.677Z,32.90
2017-10-24T18:07:13.107Z,31.70
2017-10-24T18:09:40.545Z,29.57
2017-10-24T18:12:07.978Z,31.10
2017-10-24T18:14:35.417Z,30.70
2017-10-24T18:17:02.869Z,32.10
2017-10-24T18:19:30.310Z,32.47
2017-10-24T18:21:58.130Z,29.63
2017-10-24T18:24:25.853Z,30.27
2017-10-24T18:26:53.290Z,31.97
2017-10-24T18:29:20.718Z,32.57
2017-10-24T18:31:48.562Z,32.27
2017-10-24T18:34:15.993Z,30.20
2017-10-24T18:36:43.435Z,32.50
2017-10-24T18:39:10.885Z,29.20
2017-10-24T18:41:38.321Z,30.47
2017-10-24T18:44:05.757Z,31.67
2017-10-24T18:46:33.629Z,30.80
2017-10-24T18:49:01.085Z,29.77
2017-10-24T18:51:28.507Z,31.67
2017-10-24T18:53:56.248Z,31.70
2017-10-24T18:56:23.691Z,32.30
2017-10-24T18:58:51.118Z,31.57
2017-10-24T19:01:18.958Z,31.43
2017-10-24T19:03:46.396Z,30.40
2017-10-24T19:06:13.822Z,29.40
2017-10-24T19:08:41.246Z,33.50
2017-10-24T19:11:08.685Z,33.93
2017-10-24T19:13:36.501Z,29.47
2017-10-24T19:16:03.938Z,29.73
2017-10-24T19:18:31.374Z,32.30
2017-10-24T19:20:59.206Z,28.90
2017-10-24T19:23:26.638Z,31.20
2017-10-24T19:25:54.073Z,32.20
2017-10-24T19:28:21.537Z,32.30
2017-10-24T19:30:48.971Z,31.27
2017-10-24T19:33:16.437Z,31.23
2017-10-24T19:35:44.124Z,29.27
2017-10-24T19:38:11.538Z,30.50
2017-10-24T19:40:38.970Z,27.50
2017-10-24T19:43:06.836Z,27.07
2017-10-24T19:45:34.658Z,25.43
2017-10-24T19:48:02.089Z,27.83
2017-10-24T19:50:29.876Z,26.20
2017-10-24T19:52:57.303Z,27.27
2017-10-24T19:55:24.726Z,26.47
2017-10-24T19:57:52.572Z,24.43
2017-10-24T20:00:20.005Z,25.13
2017-10-24T20:02:47.435Z,23.23
2017-10-24T20:05:15.102Z,26.23
2017-10-24T20:07:42.533Z,26.57
2017-10-24T20:10:09.961Z,26.70
2017-10-24T20:12:37.968Z,24.00
2017-10-24T20:15:05.399Z,24.87
2017-10-24T20:17:33.217Z,23.73
2017-10-24T20:20:00.669Z,25.93
2017-10-24T20:22:28.099Z,23.50
2017-10-24T20:24:55.529Z,21.10
2017-10-24T20:27:22.961Z,27.03
2017-10-24T20:29:50.410Z,24.33
2017-10-24T20:32:17.841Z,25.23
2017-10-24T20:34:45.273Z,25.60
2017-10-24T20:37:12.713Z,26.10
2017-10-24T20:39:40.141Z,25.93
2017-10-24T20:42:07.970Z,24.17
2017-10-24T20:44:35.532Z,26.60
2017-10-24T20:47:02.957Z,25.10
2017-10-24T20:49:30.385Z,23.77
2017-10-24T20:51:58.253Z,22.67
2017-10-24T20:54:25.682Z,26.30
2017-10-24T20:56:53.113Z,28.37
2017-10-24T20:59:20.554Z,25.73
2017-10-24T21:01:47.982Z,28.50
2017-10-24T21:04:15.404Z,27.77
2017-10-24T21:06:43.241Z,30.87
2017-10-24T21:09:10.672Z,26.87
2017-10-24T21:11:38.101Z,29.47
2017-10-24T21:14:05.555Z,31.53
2017-10-24T21:16:32.989Z,27.80
2017-10-24T21:19:00.423Z,28.70
2017-10-24T21:21:27.897Z,30.40
2017-10-24T21:23:55.308Z,27.37
2017-10-24T21:26:22.746Z,28.90
2017-10-24T21:28:50.624Z,27.57
2017-10-24T21:31:18.052Z,27.10
2017-10-24T21:33:45.490Z,28.33
2017-10-24T21:36:13.321Z,26.93
2017-10-24T21:38:40.754Z,27.57
2017-10-24T21:41:08.227Z,27.67
2017-10-24T21:43:35.660Z,26.77
2017-10-24T21:46:03.087Z,25.10
2017-10-24T21:48:30.566Z,25.80
2017-10-24T21:50:58.177Z,28.67
2017-10-24T21:53:25.605Z,27.43
2017-10-24T21:55:53.063Z,24.27
2017-10-24T21:58:20.502Z,24.80
2017-10-24T22:00:51.731Z,26.60
2017-10-24T22:03:19.197Z,25.33
2017-10-24T22:05:46.625Z,25.90
2017-10-24T22:08:14.061Z,22.03
2017-10-24T22:10:41.538Z,23.20
2017-10-24T22:13:08.981Z,24.03
2017-10-24T22:15:36.415Z,22.60
2017-10-24T22:18:04.269Z,23.43
2017-10-24T22:20:31.706Z,21.17
2017-10-24T22:22:59.137Z,24.40
2017-10-24T22:25:26.571Z,25.33
2017-10-24T22:27:54.002Z,24.30
2017-10-24T22:30:21.846Z,25.60
2017-10-24T22:32:49.273Z,24.83
2017-10-24T22:35:16.705Z,28.40
2017-10-24T22:37:44.159Z,27.80
2017-10-24T22:40:11.586Z,25.83
2017-10-24T22:42:39.405Z,26.60
2017-10-24T22:45:06.877Z,27.47
2017-10-24T22:47:34.312Z,27.30
2017-10-24T22:50:01.753Z,25.77
2017-10-24T22:52:29.196Z,28.67
2017-10-24T22:54:56.649Z,31.30
2017-10-24T22:57:24.081Z,28.30
2017-10-24T22:59:52.201Z,30.97
2017-10-24T23:02:19.625Z,31.30
2017-10-24T23:04:47.069Z,29.40
2017-10-24T23:07:14.540Z,27.77
2017-10-24T23:09:41.973Z,30.93
2017-10-24T23:12:09.802Z,32.13
2017-10-24T23:14:37.258Z,32.90
2017-10-24T23:17:04.689Z,29.67
2017-10-24T23:19:32.120Z,32.47
2017-10-24T23:21:59.553Z,32.73
2017-10-24T23:24:27.381Z,30.27
2017-10-24T23:26:55.121Z,30.43
2017-10-24T23:29:22.553Z,31.57
2017-10-24T23:31:50.185Z,31.33
2017-10-24T23:34:17.896Z,28.77
2017-10-24T23:36:45.328Z,31.43
2017-10-24T23:39:12.762Z,29.90
2017-10-24T23:41:40.625Z,29.27
2017-10-24T23:44:08.466Z,30.80
2017-10-24T23:46:35.904Z,30.87
2017-10-24T23:49:03.362Z,31.10
2017-10-24T23:51:30.797Z,31.63
2017-10-24T23:53:58.232Z,28.27
2017-10-24T23:56:25.718Z,29.70
2017-10-24T23:58:53.151Z,31.70
